Terminal Aerodrome Forecast
Issued by NWS

Home | Current Version | Previous Version | Text Only | Print | Product List | Glossary On
Versions: 1 2 3 4 5 6 7 8 9 10 11 12 13 14 15 16
185
FTUS43 KAPX 260520
TAFAPN
TAF
KAPN 260520Z 2606/2706 30003KT P6SM SKC
     FM261500 25007KT P6SM SKC
     FM262000 18009KT P6SM SCT060
     FM270000 27005KT P6SM FEW060
     FM270200 00000KT P6SM SCT080=

USA.gov is the U.S. government's official web portal to all federal, state and local government web resources and services.